createdAt,value
2022-10-09T00:00:00.389Z,101418
2022-10-09T00:01:02.091Z,101418
2022-10-09T00:02:00.373Z,101413
2022-10-09T00:03:00.757Z,101413
2022-10-09T00:04:00.280Z,101413
2022-10-09T00:05:00.376Z,101413
2022-10-09T00:06:00.356Z,101413
2022-10-09T00:07:00.269Z,101416
2022-10-09T00:08:00.288Z,101416
2022-10-09T00:09:00.558Z,101416
2022-10-09T00:10:00.313Z,101416
2022-10-09T00:11:03.878Z,101416
2022-10-09T00:12:00.269Z,101412
2022-10-09T00:13:00.286Z,101412
2022-10-09T00:14:00.410Z,101412
2022-10-09T00:15:00.297Z,101412
2022-10-09T00:16:02.982Z,101412
2022-10-09T00:17:00.346Z,101409
2022-10-09T00:18:00.272Z,101409
2022-10-09T00:19:00.333Z,101409
2022-10-09T00:20:00.310Z,101409
2022-10-09T00:21:00.635Z,101409
2022-10-09T00:22:00.305Z,101397
2022-10-09T00:23:00.333Z,101397
2022-10-09T00:24:01.258Z,101397
2022-10-09T00:25:00.299Z,101397
2022-10-09T00:26:00.657Z,101397
2022-10-09T00:27:00.262Z,101394
2022-10-09T00:28:00.855Z,101394
2022-10-09T00:29:00.601Z,101394
2022-10-09T00:30:00.350Z,101394
2022-10-09T00:31:03.305Z,101394
2022-10-09T00:32:00.278Z,101384
2022-10-09T00:33:00.301Z,101384
2022-10-09T00:34:00.365Z,101384
2022-10-09T00:35:00.279Z,101384
2022-10-09T00:36:04.620Z,101384
2022-10-09T00:37:00.434Z,101387
2022-10-09T00:38:00.278Z,101387
2022-10-09T00:39:00.289Z,101387
2022-10-09T00:40:00.276Z,101387
2022-10-09T00:41:00.569Z,101387
2022-10-09T00:42:01.075Z,101382
2022-10-09T00:43:00.526Z,101382
2022-10-09T00:44:02.469Z,101382
2022-10-09T00:45:00.855Z,101382
2022-10-09T00:46:00.447Z,101382
2022-10-09T00:47:00.266Z,101379
2022-10-09T00:48:02.261Z,101379
2022-10-09T00:49:04.226Z,101379
2022-10-09T00:50:04.407Z,101379
2022-10-09T00:51:00.867Z,101379
2022-10-09T00:52:02.465Z,101370
2022-10-09T00:53:00.541Z,101370
2022-10-09T00:54:01.723Z,101370
2022-10-09T00:55:01.376Z,101370
2022-10-09T00:56:00.407Z,101370
2022-10-09T00:57:00.434Z,101366
2022-10-09T00:58:01.277Z,101366
2022-10-09T00:59:00.824Z,101366
2022-10-09T01:00:02.733Z,101366
2022-10-09T01:01:00.358Z,101366
2022-10-09T01:02:00.473Z,101361
2022-10-09T01:03:00.259Z,101361
2022-10-09T01:04:00.273Z,101361
2022-10-09T01:05:00.276Z,101361
2022-10-09T01:06:10.180Z,101361
2022-10-09T01:07:03.596Z,101365
2022-10-09T01:08:06.761Z,101365
2022-10-09T01:09:07.584Z,101365
2022-10-09T01:10:01.255Z,101365
2022-10-09T01:11:00.273Z,101365
2022-10-09T01:12:05.904Z,101360
2022-10-09T01:13:05.584Z,101360
2022-10-09T01:14:07.785Z,101360
2022-10-09T01:15:01.280Z,101360
2022-10-09T01:16:06.455Z,101360
2022-10-09T01:17:04.108Z,101354
2022-10-09T01:18:10.172Z,101354
2022-10-09T01:19:10.184Z,101354
2022-10-09T01:20:10.171Z,101354
2022-10-09T01:21:10.182Z,101354
2022-10-09T01:22:00.252Z,101345
2022-10-09T01:23:10.196Z,101345
2022-10-09T01:24:10.164Z,101345
2022-10-09T01:25:04.368Z,101345
2022-10-09T01:26:07.712Z,101345
2022-10-09T01:27:10.165Z,101342
2022-10-09T01:28:02.246Z,101342
2022-10-09T01:29:03.736Z,101342
2022-10-09T01:30:04.034Z,101342
2022-10-09T01:31:01.945Z,101342
2022-10-09T01:32:01.112Z,101348
2022-10-09T01:33:00.639Z,101348
2022-10-09T01:34:00.834Z,101348
2022-10-09T01:35:00.727Z,101348
2022-10-09T01:36:01.593Z,101348
2022-10-09T01:37:01.018Z,101345
2022-10-09T01:38:00.760Z,101345
2022-10-09T01:39:02.405Z,101345
2022-10-09T01:40:01.102Z,101345
2022-10-09T01:41:01.354Z,101345
2022-10-09T01:42:00.730Z,101335
2022-10-09T01:43:00.313Z,101335
2022-10-09T01:44:00.279Z,101335
2022-10-09T01:45:00.301Z,101335
2022-10-09T01:46:10.217Z,101335
2022-10-09T01:47:00.868Z,101332
2022-10-09T01:48:01.336Z,101332
2022-10-09T01:49:01.292Z,101332
2022-10-09T01:50:08.220Z,101332
2022-10-09T01:51:02.918Z,101332
2022-10-09T01:52:10.181Z,101328
2022-10-09T01:53:03.224Z,101328
2022-10-09T01:54:00.898Z,101328
2022-10-09T01:55:07.739Z,101328
2022-10-09T01:56:05.600Z,101328
2022-10-09T01:57:01.264Z,101318
2022-10-09T01:58:10.185Z,101318
2022-10-09T01:59:03.042Z,101318
2022-10-09T02:00:02.913Z,101318
2022-10-09T02:01:00.270Z,101318
2022-10-09T02:02:00.472Z,101302
2022-10-09T02:03:01.346Z,101302
2022-10-09T02:04:01.944Z,101302
2022-10-09T02:05:00.568Z,101302
2022-10-09T02:06:02.545Z,101302
2022-10-09T02:07:00.729Z,101301
2022-10-09T02:08:00.730Z,101301
2022-10-09T02:09:02.894Z,101301
2022-10-09T02:10:01.357Z,101301
2022-10-09T02:11:00.870Z,101301
2022-10-09T02:12:03.393Z,101300
2022-10-09T02:13:00.458Z,101300
2022-10-09T02:14:00.467Z,101300
2022-10-09T02:15:00.548Z,101300
2022-10-09T02:16:03.722Z,101300
2022-10-09T02:17:03.589Z,101295
2022-10-09T02:18:04.201Z,101295
2022-10-09T02:19:05.488Z,101295
2022-10-09T02:20:10.190Z,101295
2022-10-09T02:21:04.470Z,101295
2022-10-09T02:22:06.295Z,101286
2022-10-09T02:23:02.894Z,101286
2022-10-09T02:24:00.964Z,101286
2022-10-09T02:25:02.470Z,101286
2022-10-09T02:26:00.307Z,101286
2022-10-09T02:27:01.448Z,101283
2022-10-09T02:28:00.820Z,101283
2022-10-09T02:29:00.519Z,101283
2022-10-09T02:30:00.609Z,101283
2022-10-09T02:31:10.310Z,101283
2022-10-09T02:32:00.294Z,101277
2022-10-09T02:33:00.275Z,101277
2022-10-09T02:34:01.509Z,101277
2022-10-09T02:35:00.413Z,101277
2022-10-09T02:36:00.621Z,101277
2022-10-09T02:37:00.442Z,101270
2022-10-09T02:38:00.337Z,101270
2022-10-09T02:39:00.394Z,101270
2022-10-09T02:40:00.344Z,101270
2022-10-09T02:41:00.638Z,101270
2022-10-09T02:42:00.349Z,101260
2022-10-09T02:43:00.273Z,101260
2022-10-09T02:44:00.774Z,101260
2022-10-09T02:45:00.271Z,101260
2022-10-09T02:46:00.327Z,101260
2022-10-09T02:47:00.303Z,101260
2022-10-09T02:48:00.267Z,101260
2022-10-09T02:49:00.358Z,101260
2022-10-09T02:50:00.284Z,101260
2022-10-09T02:51:00.274Z,101260
2022-10-09T02:52:00.296Z,101255
2022-10-09T02:53:00.300Z,101255
2022-10-09T02:54:00.606Z,101255
2022-10-09T02:55:00.275Z,101255
2022-10-09T02:56:00.491Z,101255
2022-10-09T02:57:00.266Z,101245
2022-10-09T02:58:00.325Z,101245
2022-10-09T02:59:00.261Z,101245
2022-10-09T03:00:00.366Z,101245
2022-10-09T03:01:00.580Z,101245
2022-10-09T03:02:01.404Z,101244
2022-10-09T03:03:00.428Z,101244
2022-10-09T03:04:00.434Z,101244
2022-10-09T03:05:00.279Z,101244
2022-10-09T03:06:00.269Z,101244
2022-10-09T03:07:00.264Z,101237
2022-10-09T03:08:00.266Z,101237
2022-10-09T03:09:00.284Z,101237
2022-10-09T03:10:00.329Z,101237
2022-10-09T03:11:00.373Z,101237
2022-10-09T03:12:00.289Z,101237
2022-10-09T03:13:00.269Z,101237
2022-10-09T03:14:00.477Z,101237
2022-10-09T03:15:00.305Z,101237
2022-10-09T03:16:03.648Z,101237
2022-10-09T03:17:00.298Z,101230
2022-10-09T03:18:00.558Z,101230
2022-10-09T03:19:09.586Z,101230
2022-10-09T03:20:00.281Z,101230
2022-10-09T03:21:05.438Z,101230
2022-10-09T03:22:01.707Z,101231
2022-10-09T03:23:05.577Z,101231
2022-10-09T03:24:02.266Z,101231
2022-10-09T03:25:00.773Z,101231
2022-10-09T03:26:02.563Z,101231
2022-10-09T03:27:01.215Z,101231
2022-10-09T03:28:00.427Z,101231
2022-10-09T03:29:00.430Z,101231
2022-10-09T03:30:00.669Z,101231
2022-10-09T03:31:06.117Z,101231
2022-10-09T03:32:00.404Z,101227
2022-10-09T03:34:06.720Z,101227
2022-10-09T03:35:05.328Z,101227
2022-10-09T03:36:06.460Z,101227
2022-10-09T03:37:16.562Z,101219
2022-10-09T03:38:00.836Z,101219
2022-10-09T03:39:00.267Z,101219
2022-10-09T03:40:00.275Z,101219
2022-10-09T03:41:00.954Z,101219
2022-10-09T03:42:00.273Z,101219
2022-10-09T03:43:00.272Z,101219
2022-10-09T03:44:00.321Z,101219
2022-10-09T03:45:00.319Z,101219
2022-10-09T03:46:03.437Z,101219
2022-10-09T03:47:00.384Z,101210
2022-10-09T03:48:00.404Z,101210
2022-10-09T03:49:00.282Z,101210
2022-10-09T03:50:00.253Z,101210
2022-10-09T03:51:00.385Z,101210
2022-10-09T03:52:00.289Z,101204
2022-10-09T03:53:00.278Z,101204
2022-10-09T03:54:00.274Z,101204
2022-10-09T03:55:00.278Z,101204
2022-10-09T03:56:00.309Z,101204
2022-10-09T03:57:00.344Z,101200
2022-10-09T03:58:00.359Z,101200
2022-10-09T03:59:00.361Z,101200
2022-10-09T04:00:00.410Z,101200
2022-10-09T04:01:00.345Z,101200
2022-10-09T04:02:00.265Z,101198
2022-10-09T04:03:00.396Z,101198
2022-10-09T04:04:00.643Z,101198
2022-10-09T04:05:00.385Z,101198
2022-10-09T04:06:00.260Z,101198
2022-10-09T04:07:00.287Z,101201
2022-10-09T04:08:00.407Z,101201
2022-10-09T04:09:00.276Z,101201
2022-10-09T04:10:00.499Z,101201
2022-10-09T04:11:00.282Z,101201
2022-10-09T04:12:00.281Z,101192
2022-10-09T04:13:00.262Z,101192
2022-10-09T04:14:00.443Z,101192
2022-10-09T04:15:00.439Z,101192
2022-10-09T04:16:00.491Z,101192
2022-10-09T04:17:00.302Z,101195
2022-10-09T04:18:00.294Z,101195
2022-10-09T04:19:00.262Z,101195
2022-10-09T04:20:00.280Z,101195
2022-10-09T04:21:00.265Z,101195
2022-10-09T04:22:00.350Z,101183
2022-10-09T04:23:00.285Z,101183
2022-10-09T04:24:00.264Z,101183
2022-10-09T04:25:00.267Z,101183
2022-10-09T04:26:00.296Z,101183
2022-10-09T04:27:00.256Z,101183
2022-10-09T04:28:00.267Z,101183
2022-10-09T04:29:00.290Z,101183
2022-10-09T04:30:00.275Z,101183
2022-10-09T04:31:00.574Z,101183
2022-10-09T04:32:00.367Z,101180
2022-10-09T04:33:00.257Z,101180
2022-10-09T04:34:00.446Z,101180
2022-10-09T04:35:00.358Z,101180
2022-10-09T04:36:00.274Z,101180
2022-10-09T04:37:00.267Z,101176
2022-10-09T04:38:00.269Z,101176
2022-10-09T04:39:00.424Z,101176
2022-10-09T04:40:00.285Z,101176
2022-10-09T04:41:01.960Z,101176
2022-10-09T04:42:00.301Z,101173
2022-10-09T04:43:00.282Z,101173
2022-10-09T04:44:00.294Z,101173
2022-10-09T04:45:00.284Z,101173
2022-10-09T04:46:04.457Z,101173
2022-10-09T04:47:00.325Z,101176
2022-10-09T04:48:00.289Z,101176
2022-10-09T04:49:00.308Z,101176
2022-10-09T04:50:00.303Z,101176
2022-10-09T04:51:02.526Z,101176
2022-10-09T04:52:00.269Z,101172
2022-10-09T04:53:00.314Z,101172
2022-10-09T04:54:00.853Z,101172
2022-10-09T04:55:00.279Z,101172
2022-10-09T04:56:02.488Z,101172
2022-10-09T04:57:00.263Z,101171
2022-10-09T04:58:00.280Z,101171
2022-10-09T04:59:00.283Z,101171
2022-10-09T05:00:00.338Z,101171
2022-10-09T05:01:04.074Z,101171
2022-10-09T05:02:00.403Z,101165
2022-10-09T05:03:00.299Z,101165
2022-10-09T05:04:00.304Z,101165
2022-10-09T05:05:00.277Z,101165
2022-10-09T05:06:00.782Z,101165
2022-10-09T05:07:00.287Z,101161
2022-10-09T05:08:00.297Z,101161
2022-10-09T05:09:00.320Z,101161
2022-10-09T05:10:00.272Z,101161
2022-10-09T05:11:02.476Z,101161
2022-10-09T05:12:00.274Z,101157
2022-10-09T05:13:00.286Z,101157
2022-10-09T05:14:00.267Z,101157
2022-10-09T05:15:00.304Z,101157
2022-10-09T05:16:00.746Z,101157
2022-10-09T05:17:13.541Z,101152
2022-10-09T05:18:00.290Z,101152
2022-10-09T05:19:00.305Z,101152
2022-10-09T05:20:00.342Z,101152
2022-10-09T05:21:03.955Z,101152
2022-10-09T05:22:00.269Z,101154
2022-10-09T05:23:00.293Z,101154
2022-10-09T05:24:00.316Z,101154
2022-10-09T05:25:00.269Z,101154
2022-10-09T05:26:01.749Z,101154
2022-10-09T05:27:00.264Z,101142
2022-10-09T05:28:00.278Z,101142
2022-10-09T05:29:00.279Z,101142
2022-10-09T05:30:00.453Z,101142
2022-10-09T05:31:02.486Z,101142
2022-10-09T05:32:00.357Z,101143
2022-10-09T05:33:00.257Z,101143
2022-10-09T05:34:00.400Z,101143
2022-10-09T05:35:00.343Z,101143
2022-10-09T05:36:01.294Z,101143
2022-10-09T05:37:00.363Z,101132
2022-10-09T05:38:00.270Z,101132
2022-10-09T05:39:00.408Z,101132
2022-10-09T05:40:00.432Z,101132
2022-10-09T05:41:02.342Z,101132
2022-10-09T05:42:00.584Z,101126
2022-10-09T05:43:00.352Z,101126
2022-10-09T05:44:00.816Z,101126
2022-10-09T05:45:00.291Z,101126
2022-10-09T05:46:09.053Z,101126
2022-10-09T05:47:00.266Z,101124
2022-10-09T05:48:00.291Z,101124
2022-10-09T05:49:01.843Z,101124
2022-10-09T05:50:00.335Z,101124
2022-10-09T05:51:10.181Z,101124
2022-10-09T05:52:00.311Z,101116
2022-10-09T05:53:00.293Z,101116
2022-10-09T05:54:00.294Z,101116
2022-10-09T05:55:00.271Z,101116
2022-10-09T05:56:10.194Z,101116
2022-10-09T05:57:00.287Z,101115
2022-10-09T05:58:00.288Z,101115
2022-10-09T05:59:04.493Z,101115
2022-10-09T06:00:00.388Z,101115
2022-10-09T06:01:00.408Z,101115
2022-10-09T06:02:00.410Z,101111
2022-10-09T06:03:00.284Z,101111
2022-10-09T06:04:00.756Z,101111
2022-10-09T06:05:00.297Z,101111
2022-10-09T06:06:01.654Z,101111
2022-10-09T06:07:00.303Z,101116
2022-10-09T06:08:00.293Z,101116
2022-10-09T06:09:00.330Z,101116
2022-10-09T06:10:00.289Z,101116
2022-10-09T06:11:08.530Z,101116
2022-10-09T06:12:00.315Z,101122
2022-10-09T06:13:00.294Z,101122
2022-10-09T06:14:01.339Z,101122
2022-10-09T06:15:00.313Z,101122
2022-10-09T06:16:00.300Z,101122
2022-10-09T06:17:00.363Z,101107
2022-10-09T06:18:00.297Z,101107
2022-10-09T06:19:00.520Z,101107
2022-10-09T06:20:00.322Z,101107
2022-10-09T06:21:01.119Z,101107
2022-10-09T06:22:00.277Z,101106
2022-10-09T06:23:00.305Z,101106
2022-10-09T06:24:01.123Z,101106
2022-10-09T06:25:00.291Z,101106
2022-10-09T06:26:02.381Z,101106
2022-10-09T06:27:00.287Z,101110
2022-10-09T06:28:00.270Z,101110
2022-10-09T06:29:01.064Z,101110
2022-10-09T06:30:00.334Z,101110
2022-10-09T06:31:02.066Z,101110
2022-10-09T06:32:00.258Z,101103
2022-10-09T06:33:00.289Z,101103
2022-10-09T06:34:00.924Z,101103
2022-10-09T06:35:00.298Z,101103
2022-10-09T06:36:09.781Z,101103
2022-10-09T06:37:00.351Z,101103
2022-10-09T06:38:00.281Z,101103
2022-10-09T06:39:01.316Z,101103
2022-10-09T06:40:00.306Z,101103
2022-10-09T06:41:01.187Z,101103
2022-10-09T06:42:00.319Z,101101
2022-10-09T06:43:00.272Z,101101
2022-10-09T06:44:01.374Z,101101
2022-10-09T06:45:00.289Z,101101
2022-10-09T06:46:01.482Z,101101
2022-10-09T06:47:00.282Z,101091
2022-10-09T06:48:00.288Z,101091
2022-10-09T06:49:00.658Z,101091
2022-10-09T06:50:00.310Z,101091
2022-10-09T06:51:00.962Z,101091
2022-10-09T06:52:00.323Z,101092
2022-10-09T06:53:00.307Z,101092
2022-10-09T06:54:01.185Z,101092
2022-10-09T06:55:00.296Z,101092
2022-10-09T06:56:00.339Z,101092
2022-10-09T06:57:00.277Z,101091
2022-10-09T06:58:00.380Z,101091
2022-10-09T06:59:01.058Z,101091
2022-10-09T07:00:00.323Z,101091
2022-10-09T07:01:01.307Z,101091
2022-10-09T07:02:00.416Z,101094
2022-10-09T07:03:00.437Z,101094
2022-10-09T07:04:03.146Z,101094
2022-10-09T07:05:00.272Z,101094
2022-10-09T07:06:10.195Z,101094
2022-10-09T07:07:00.280Z,101085
2022-10-09T07:08:00.303Z,101085
2022-10-09T07:09:01.493Z,101085
2022-10-09T07:10:00.281Z,101085
2022-10-09T07:11:06.455Z,101085
2022-10-09T07:12:00.266Z,101091
2022-10-09T07:13:00.480Z,101091
2022-10-09T07:14:01.598Z,101091
2022-10-09T07:15:00.469Z,101091
2022-10-09T07:16:03.989Z,101091
2022-10-09T07:17:00.357Z,101096
2022-10-09T07:18:01.466Z,101096
2022-10-09T07:19:00.311Z,101096
2022-10-09T07:20:00.560Z,101096
2022-10-09T07:21:01.215Z,101096
2022-10-09T07:22:00.378Z,101084
2022-10-09T07:23:00.266Z,101084
2022-10-09T07:24:00.745Z,101084
2022-10-09T07:25:00.289Z,101084
2022-10-09T07:26:00.770Z,101084
2022-10-09T07:27:00.266Z,101081
2022-10-09T07:28:00.396Z,101081
2022-10-09T07:29:00.860Z,101081
2022-10-09T07:30:00.420Z,101081
2022-10-09T07:31:02.352Z,101081
2022-10-09T07:32:00.294Z,101083
2022-10-09T07:33:00.269Z,101083
2022-10-09T07:34:00.291Z,101083
2022-10-09T07:35:00.299Z,101083
2022-10-09T07:36:00.857Z,101083
2022-10-09T07:37:00.283Z,101085
2022-10-09T07:38:00.283Z,101085
2022-10-09T07:39:00.870Z,101085
2022-10-09T07:40:00.269Z,101085
2022-10-09T07:41:01.518Z,101085
2022-10-09T07:42:00.571Z,101080
2022-10-09T07:43:00.317Z,101080
2022-10-09T07:44:00.291Z,101080
2022-10-09T07:45:00.313Z,101080
2022-10-09T07:46:00.871Z,101080
2022-10-09T07:47:00.282Z,101085
2022-10-09T07:48:00.301Z,101085
2022-10-09T07:49:00.687Z,101085
2022-10-09T07:50:00.288Z,101085
2022-10-09T07:51:07.727Z,101085
2022-10-09T07:52:00.268Z,101081
2022-10-09T07:53:00.273Z,101081
2022-10-09T07:54:00.591Z,101081
2022-10-09T07:55:00.419Z,101081
2022-10-09T07:56:00.301Z,101081
2022-10-09T07:57:00.261Z,101075
2022-10-09T07:58:00.274Z,101075
2022-10-09T07:59:01.431Z,101075
2022-10-09T08:00:00.354Z,101075
2022-10-09T08:01:02.689Z,101075
2022-10-09T08:02:00.353Z,101077
2022-10-09T08:03:00.347Z,101077
2022-10-09T08:04:00.751Z,101077
2022-10-09T08:05:00.387Z,101077
2022-10-09T08:06:00.532Z,101077
2022-10-09T08:07:00.280Z,101078
2022-10-09T08:08:00.593Z,101078
2022-10-09T08:09:01.003Z,101078
2022-10-09T08:10:00.293Z,101078
2022-10-09T08:11:06.550Z,101078
2022-10-09T08:12:00.274Z,101082
2022-10-09T08:13:00.308Z,101082
2022-10-09T08:14:00.298Z,101082
2022-10-09T08:15:00.269Z,101082
2022-10-09T08:16:00.345Z,101082
2022-10-09T08:17:00.295Z,101083
2022-10-09T08:18:00.269Z,101083
2022-10-09T08:19:00.359Z,101083
2022-10-09T08:20:00.295Z,101083
2022-10-09T08:21:02.002Z,101083
2022-10-09T08:22:03.413Z,101074
2022-10-09T08:23:00.325Z,101074
2022-10-09T08:24:00.306Z,101074
2022-10-09T08:25:00.357Z,101074
2022-10-09T08:26:00.289Z,101074
2022-10-09T08:27:00.340Z,101067
2022-10-09T08:28:00.266Z,101067
2022-10-09T08:29:01.401Z,101067
2022-10-09T08:30:00.288Z,101067
2022-10-09T08:31:08.368Z,101067
2022-10-09T08:32:00.351Z,101068
2022-10-09T08:33:00.274Z,101068
2022-10-09T08:34:01.295Z,101068
2022-10-09T08:35:00.338Z,101068
2022-10-09T08:36:04.439Z,101068
2022-10-09T08:37:00.306Z,101062
2022-10-09T08:38:00.447Z,101062
2022-10-09T08:39:00.293Z,101062
2022-10-09T08:40:00.293Z,101062
2022-10-09T08:41:09.181Z,101062
2022-10-09T08:42:00.369Z,101054
2022-10-09T08:43:03.181Z,101054
2022-10-09T08:44:02.382Z,101054
2022-10-09T08:45:01.089Z,101054
2022-10-09T08:46:02.293Z,101054
2022-10-09T08:47:10.189Z,101044
2022-10-09T08:48:03.263Z,101044
2022-10-09T08:49:01.845Z,101044
2022-10-09T08:50:05.987Z,101044
2022-10-09T08:51:01.297Z,101044
2022-10-09T08:52:09.165Z,101048
2022-10-09T08:53:04.535Z,101048
2022-10-09T08:54:04.289Z,101048
2022-10-09T08:55:05.255Z,101048
2022-10-09T08:56:02.274Z,101048
2022-10-09T08:57:02.412Z,101046
2022-10-09T08:58:02.092Z,101046
2022-10-09T08:59:01.026Z,101046
2022-10-09T09:00:00.345Z,101046
2022-10-09T09:01:10.181Z,101046
2022-10-09T09:02:10.229Z,101037
2022-10-09T09:03:10.213Z,101037
2022-10-09T09:04:10.199Z,101037
2022-10-09T09:05:10.193Z,101037
2022-10-09T09:06:00.274Z,101037
2022-10-09T09:07:06.954Z,101024
2022-10-09T09:08:04.740Z,101024
2022-10-09T09:09:10.189Z,101024
2022-10-09T09:10:10.175Z,101024
2022-10-09T09:11:10.169Z,101024
2022-10-09T09:12:09.013Z,101025
2022-10-09T09:13:10.221Z,101025
2022-10-09T09:14:08.947Z,101025
2022-10-09T09:15:10.197Z,101025
2022-10-09T09:16:07.126Z,101025
2022-10-09T09:17:01.285Z,101018
2022-10-09T09:18:00.612Z,101018
2022-10-09T09:19:01.349Z,101018
2022-10-09T09:20:03.807Z,101018
2022-10-09T09:21:10.187Z,101018
2022-10-09T09:22:00.392Z,101010
2022-10-09T09:23:00.538Z,101010
2022-10-09T09:24:02.238Z,101010
2022-10-09T09:25:06.639Z,101010
2022-10-09T09:26:00.732Z,101010
2022-10-09T09:27:02.205Z,101009
2022-10-09T09:28:12.388Z,101009
2022-10-09T09:29:01.546Z,101009
2022-10-09T09:30:09.561Z,101009
2022-10-09T09:31:10.240Z,101009
2022-10-09T09:32:00.273Z,100994
2022-10-09T09:33:10.171Z,100994
2022-10-09T09:34:08.420Z,100994
2022-10-09T09:35:04.324Z,100994
2022-10-09T09:36:07.752Z,100994
2022-10-09T09:37:00.315Z,100995
2022-10-09T09:38:00.607Z,100995
2022-10-09T09:41:00.814Z,100995
2022-10-09T09:42:10.183Z,100984
2022-10-09T09:43:04.816Z,100984
2022-10-09T09:44:00.261Z,100984
2022-10-09T09:45:02.860Z,100984
2022-10-09T09:46:00.793Z,100984
2022-10-09T09:47:01.053Z,100984
2022-10-09T09:48:04.971Z,100984
2022-10-09T09:49:00.544Z,100984
2022-10-09T09:50:01.695Z,100984
2022-10-09T09:51:23.298Z,100984
2022-10-09T09:52:01.137Z,100974
2022-10-09T09:53:03.590Z,100974
2022-10-09T09:54:04.930Z,100974
2022-10-09T09:55:00.848Z,100974
2022-10-09T09:56:00.719Z,100974
2022-10-09T09:57:13.005Z,100976
2022-10-09T09:58:05.682Z,100976
2022-10-09T09:59:00.364Z,100976
2022-10-09T10:00:10.223Z,100976
2022-10-09T10:01:01.381Z,100976
2022-10-09T10:02:01.836Z,100970
2022-10-09T10:03:10.166Z,100970
2022-10-09T10:04:02.849Z,100970
2022-10-09T10:05:04.905Z,100970
2022-10-09T10:06:00.331Z,100970
2022-10-09T10:07:00.480Z,100962
2022-10-09T10:08:00.261Z,100962
2022-10-09T10:09:02.609Z,100962
2022-10-09T10:10:10.195Z,100962
2022-10-09T10:11:06.156Z,100962
2022-10-09T10:12:01.177Z,100959
2022-10-09T10:13:00.543Z,100959
2022-10-09T10:14:07.925Z,100959
2022-10-09T10:15:00.275Z,100959
2022-10-09T10:16:00.704Z,100959
2022-10-09T10:17:01.110Z,100945
2022-10-09T10:18:03.266Z,100945
2022-10-09T10:19:00.309Z,100945
2022-10-09T10:20:04.369Z,100945
2022-10-09T10:21:02.898Z,100945
2022-10-09T10:22:03.136Z,100940
2022-10-09T10:23:00.297Z,100940
2022-10-09T10:24:04.209Z,100940
2022-10-09T10:25:00.375Z,100940
2022-10-09T10:26:10.181Z,100940
2022-10-09T10:27:10.193Z,100931
2022-10-09T10:28:04.894Z,100931
2022-10-09T10:29:00.254Z,100931
2022-10-09T10:30:02.174Z,100931
2022-10-09T10:31:02.019Z,100931
2022-10-09T10:32:08.733Z,100920
2022-10-09T10:33:05.056Z,100920
2022-10-09T10:34:01.234Z,100920
2022-10-09T10:35:03.398Z,100920
2022-10-09T10:36:00.380Z,100920
2022-10-09T10:37:09.045Z,100912
2022-10-09T10:38:10.179Z,100912
2022-10-09T10:39:07.402Z,100912
2022-10-09T10:40:03.358Z,100912
2022-10-09T10:41:08.247Z,100912
2022-10-09T10:42:01.713Z,100900
2022-10-09T10:43:06.618Z,100900
2022-10-09T10:44:06.799Z,100900
2022-10-09T10:45:10.213Z,100900
2022-10-09T10:46:05.961Z,100900
2022-10-09T10:47:03.003Z,100896
2022-10-09T10:48:01.985Z,100896
2022-10-09T10:49:00.340Z,100896
2022-10-09T10:50:00.514Z,100896
2022-10-09T10:51:08.542Z,100896
2022-10-09T10:52:10.184Z,100881
2022-10-09T10:53:10.939Z,100881
2022-10-09T10:54:10.171Z,100881
2022-10-09T10:55:03.600Z,100881
2022-10-09T10:56:05.455Z,100881
2022-10-09T10:57:06.289Z,100876
2022-10-09T10:58:07.624Z,100876
2022-10-09T10:59:10.177Z,100876
2022-10-09T11:00:02.106Z,100876
2022-10-09T11:01:01.413Z,100876
2022-10-09T11:02:10.164Z,100869
2022-10-09T11:03:10.219Z,100869
2022-10-09T11:04:01.344Z,100869
2022-10-09T11:05:00.248Z,100869
2022-10-09T11:06:06.064Z,100869
2022-10-09T11:07:08.405Z,100871
2022-10-09T11:08:10.251Z,100871
2022-10-09T11:09:10.163Z,100871
2022-10-09T11:10:01.397Z,100871
2022-10-09T11:11:03.600Z,100871
2022-10-09T11:12:19.302Z,100860
2022-10-09T11:13:07.387Z,100860
2022-10-09T11:14:10.175Z,100860
2022-10-09T11:15:10.193Z,100860
2022-10-09T11:16:08.465Z,100860
2022-10-09T11:17:04.332Z,100855
2022-10-09T11:18:10.178Z,100855
2022-10-09T11:19:03.598Z,100855
2022-10-09T11:20:00.255Z,100855
2022-10-09T11:21:10.176Z,100855
2022-10-09T11:22:07.727Z,100863
2022-10-09T11:23:07.563Z,100863
2022-10-09T11:24:10.183Z,100863
2022-10-09T11:25:10.175Z,100863
2022-10-09T11:26:03.593Z,100863
2022-10-09T11:27:05.497Z,100846
2022-10-09T11:28:01.289Z,100846
2022-10-09T11:29:04.658Z,100846
2022-10-09T11:30:02.865Z,100846
2022-10-09T11:31:03.108Z,100846
2022-10-09T11:32:10.182Z,100840
2022-10-09T11:33:01.280Z,100840
2022-10-09T11:34:06.170Z,100840
2022-10-09T11:35:05.006Z,100840
2022-10-09T11:36:02.317Z,100840
2022-10-09T11:37:00.335Z,100836
2022-10-09T11:38:02.205Z,100836
2022-10-09T11:39:02.837Z,100836
2022-10-09T11:40:06.486Z,100836
2022-10-09T11:41:03.879Z,100836
2022-10-09T11:42:00.320Z,100828
2022-10-09T11:43:03.750Z,100828
2022-10-09T11:44:00.251Z,100828
2022-10-09T11:45:10.193Z,100828
2022-10-09T11:46:03.128Z,100828
2022-10-09T11:47:10.041Z,100817
2022-10-09T11:48:09.662Z,100817
2022-10-09T11:49:10.165Z,100817
2022-10-09T11:50:01.259Z,100817
2022-10-09T11:51:10.182Z,100817
2022-10-09T11:52:05.858Z,100809
2022-10-09T11:53:04.597Z,100809
2022-10-09T11:54:01.374Z,100809
2022-10-09T11:55:10.189Z,100809
2022-10-09T11:56:01.544Z,100809
2022-10-09T11:57:04.184Z,100810
2022-10-09T11:58:10.164Z,100810
2022-10-09T11:59:03.005Z,100810
2022-10-09T12:00:05.162Z,100810
2022-10-09T12:01:10.238Z,100810
2022-10-09T12:02:10.215Z,100800
2022-10-09T12:03:01.794Z,100800
2022-10-09T12:04:02.168Z,100800
2022-10-09T12:05:00.406Z,100800
2022-10-09T12:06:03.786Z,100800
2022-10-09T12:07:01.728Z,100791
2022-10-09T12:08:11.219Z,100791
2022-10-09T12:09:02.306Z,100791
2022-10-09T12:10:03.652Z,100791
2022-10-09T12:11:09.744Z,100791
2022-10-09T12:12:04.730Z,100785
2022-10-09T12:13:02.854Z,100785
2022-10-09T12:14:02.267Z,100785
2022-10-09T12:15:10.211Z,100785
2022-10-09T12:16:00.279Z,100785
2022-10-09T12:17:00.953Z,100771
2022-10-09T12:18:00.342Z,100771
2022-10-09T12:19:03.656Z,100771
2022-10-09T12:20:03.801Z,100771
2022-10-09T12:21:04.272Z,100771
2022-10-09T12:22:00.266Z,100770
2022-10-09T12:23:26.325Z,100770
2022-10-09T12:24:00.394Z,100770
2022-10-09T12:25:04.139Z,100770
2022-10-09T12:26:01.079Z,100770
2022-10-09T12:27:01.082Z,100758
2022-10-09T12:28:00.552Z,100758
2022-10-09T12:29:01.022Z,100758
2022-10-09T12:30:06.913Z,100758
2022-10-09T12:31:02.242Z,100758